sensor_id;sensor_type;location;lat;lon;timestamp;temperature;humidity
2945;DHT22;1482;51.398;7.128;2022-08-16T00:00:49;20.80;1.00
2945;DHT22;1482;51.398;7.128;2022-08-16T00:03:15;20.80;1.00
2945;DHT22;1482;51.398;7.128;2022-08-16T00:05:42;20.80;1.00
2945;DHT22;1482;51.398;7.128;2022-08-16T00:08:08;20.80;1.00
2945;DHT22;1482;51.398;7.128;2022-08-16T00:10:34;20.70;1.00
2945;DHT22;1482;51.398;7.128;2022-08-16T00:13:02;20.60;1.00
2945;DHT22;1482;51.398;7.128;2022-08-16T00:15:35;20.60;1.00
2945;DHT22;1482;51.398;7.128;2022-08-16T00:18:02;20.50;1.00
2945;DHT22;1482;51.398;7.128;2022-08-16T00:20:29;20.40;1.00
2945;DHT22;1482;51.398;7.128;2022-08-16T00:22:55;20.40;1.00
2945;DHT22;1482;51.398;7.128;2022-08-16T00:25:22;20.40;1.00
2945;DHT22;1482;51.398;7.128;2022-08-16T00:27:48;20.40;1.00
2945;DHT22;1482;51.398;7.128;2022-08-16T00:30:15;20.40;1.00
2945;DHT22;1482;51.398;7.128;2022-08-16T00:32:44;20.30;1.00
2945;DHT22;1482;51.398;7.128;2022-08-16T00:35:13;20.30;1.00
2945;DHT22;1482;51.398;7.128;2022-08-16T00:37:39;20.30;1.00
2945;DHT22;1482;51.398;7.128;2022-08-16T00:40:05;20.30;1.00
2945;DHT22;1482;51.398;7.128;2022-08-16T00:42:33;20.20;1.00
2945;DHT22;1482;51.398;7.128;2022-08-16T00:47:45;20.20;1.00
2945;DHT22;1482;51.398;7.128;2022-08-16T00:50:12;20.20;1.00
2945;DHT22;1482;51.398;7.128;2022-08-16T00:52:40;20.20;1.00
2945;DHT22;1482;51.398;7.128;2022-08-16T00:55:06;20.20;1.00
2945;DHT22;1482;51.398;7.128;2022-08-16T00:57:32;20.30;1.00
2945;DHT22;1482;51.398;7.128;2022-08-16T00:59:58;20.30;1.00
2945;DHT22;1482;51.398;7.128;2022-08-16T01:02:26;20.20;1.00
2945;DHT22;1482;51.398;7.128;2022-08-16T01:04:52;20.30;1.00
2945;DHT22;1482;51.398;7.128;2022-08-16T01:07:18;20.30;1.00
2945;DHT22;1482;51.398;7.128;2022-08-16T01:09:44;20.40;1.00
2945;DHT22;1482;51.398;7.128;2022-08-16T01:12:10;20.40;1.00
2945;DHT22;1482;51.398;7.128;2022-08-16T01:14:41;20.40;1.00
2945;DHT22;1482;51.398;7.128;2022-08-16T01:17:09;20.40;1.00
2945;DHT22;1482;51.398;7.128;2022-08-16T01:19:41;20.50;1.00
2945;DHT22;1482;51.398;7.128;2022-08-16T01:22:20;20.40;1.00
2945;DHT22;1482;51.398;7.128;2022-08-16T01:25:06;20.40;1.00
2945;DHT22;1482;51.398;7.128;2022-08-16T01:27:47;20.40;1.00
2945;DHT22;1482;51.398;7.128;2022-08-16T01:32:42;20.50;1.00
2945;DHT22;1482;51.398;7.128;2022-08-16T01:35:15;20.50;1.00
2945;DHT22;1482;51.398;7.128;2022-08-16T01:37:50;20.50;1.00
2945;DHT22;1482;51.398;7.128;2022-08-16T01:40:18;20.50;1.00
2945;DHT22;1482;51.398;7.128;2022-08-16T01:42:45;20.50;1.00
2945;DHT22;1482;51.398;7.128;2022-08-16T01:45:11;20.60;1.00
2945;DHT22;1482;51.398;7.128;2022-08-16T01:47:38;20.50;1.00
2945;DHT22;1482;51.398;7.128;2022-08-16T01:50:05;20.60;1.00
2945;DHT22;1482;51.398;7.128;2022-08-16T01:52:31;20.60;1.00
2945;DHT22;1482;51.398;7.128;2022-08-16T01:54:57;20.50;1.00
2945;DHT22;1482;51.398;7.128;2022-08-16T01:57:23;20.60;1.00
2945;DHT22;1482;51.398;7.128;2022-08-16T01:59:48;20.60;1.00
2945;DHT22;1482;51.398;7.128;2022-08-16T02:02:14;20.60;1.00
2945;DHT22;1482;51.398;7.128;2022-08-16T02:04:40;20.60;1.00
2945;DHT22;1482;51.398;7.128;2022-08-16T02:07:06;20.60;1.00
2945;DHT22;1482;51.398;7.128;2022-08-16T02:09:35;20.60;1.00
2945;DHT22;1482;51.398;7.128;2022-08-16T02:12:04;20.60;1.00
2945;DHT22;1482;51.398;7.128;2022-08-16T02:14:32;20.50;1.00
2945;DHT22;1482;51.398;7.128;2022-08-16T02:17:00;20.50;1.00
2945;DHT22;1482;51.398;7.128;2022-08-16T02:19:27;20.50;1.00
2945;DHT22;1482;51.398;7.128;2022-08-16T02:21:55;20.50;1.00
2945;DHT22;1482;51.398;7.128;2022-08-16T02:24:22;20.60;1.00
2945;DHT22;1482;51.398;7.128;2022-08-16T02:26:48;20.60;1.00
2945;DHT22;1482;51.398;7.128;2022-08-16T02:29:15;20.50;1.00
2945;DHT22;1482;51.398;7.128;2022-08-16T02:31:43;20.60;1.00
2945;DHT22;1482;51.398;7.128;2022-08-16T02:34:09;20.50;1.00
2945;DHT22;1482;51.398;7.128;2022-08-16T02:36:36;20.50;1.00
2945;DHT22;1482;51.398;7.128;2022-08-16T02:39:04;20.50;1.00
2945;DHT22;1482;51.398;7.128;2022-08-16T02:41:30;20.40;1.00
2945;DHT22;1482;51.398;7.128;2022-08-16T02:43:56;20.40;1.00
2945;DHT22;1482;51.398;7.128;2022-08-16T02:46:21;20.40;1.00
2945;DHT22;1482;51.398;7.128;2022-08-16T02:48:47;20.40;1.00
2945;DHT22;1482;51.398;7.128;2022-08-16T02:51:13;20.40;1.00
2945;DHT22;1482;51.398;7.128;2022-08-16T02:53:42;20.30;1.00
2945;DHT22;1482;51.398;7.128;2022-08-16T02:56:09;20.30;1.00
2945;DHT22;1482;51.398;7.128;2022-08-16T02:58:36;20.30;1.00
2945;DHT22;1482;51.398;7.128;2022-08-16T03:01:02;20.20;1.00
2945;DHT22;1482;51.398;7.128;2022-08-16T03:03:28;20.20;1.00
2945;DHT22;1482;51.398;7.128;2022-08-16T03:05:54;20.10;1.00
2945;DHT22;1482;51.398;7.128;2022-08-16T03:08:21;20.00;1.00
2945;DHT22;1482;51.398;7.128;2022-08-16T03:10:47;20.00;1.00
2945;DHT22;1482;51.398;7.128;2022-08-16T03:13:14;19.90;1.00
2945;DHT22;1482;51.398;7.128;2022-08-16T03:15:41;19.90;1.00
2945;DHT22;1482;51.398;7.128;2022-08-16T03:18:06;19.90;1.00
2945;DHT22;1482;51.398;7.128;2022-08-16T03:20:32;19.90;1.00
2945;DHT22;1482;51.398;7.128;2022-08-16T03:22:58;19.90;1.00
2945;DHT22;1482;51.398;7.128;2022-08-16T03:25:23;19.80;1.00
2945;DHT22;1482;51.398;7.128;2022-08-16T03:27:50;19.90;1.00
2945;DHT22;1482;51.398;7.128;2022-08-16T03:30:20;19.90;1.00
2945;DHT22;1482;51.398;7.128;2022-08-16T03:32:47;19.80;1.00
2945;DHT22;1482;51.398;7.128;2022-08-16T03:35:15;19.80;1.00
2945;DHT22;1482;51.398;7.128;2022-08-16T03:37:41;19.80;1.00
2945;DHT22;1482;51.398;7.128;2022-08-16T03:40:09;19.80;1.00
2945;DHT22;1482;51.398;7.128;2022-08-16T03:42:35;19.70;1.00
2945;DHT22;1482;51.398;7.128;2022-08-16T03:45:00;19.70;1.00
2945;DHT22;1482;51.398;7.128;2022-08-16T03:47:26;19.80;1.00
2945;DHT22;1482;51.398;7.128;2022-08-16T03:49:54;19.80;1.00
2945;DHT22;1482;51.398;7.128;2022-08-16T03:52:21;19.70;1.00
2945;DHT22;1482;51.398;7.128;2022-08-16T03:54:47;19.70;1.00
2945;DHT22;1482;51.398;7.128;2022-08-16T03:57:13;19.70;1.00
2945;DHT22;1482;51.398;7.128;2022-08-16T03:59:39;19.70;1.00
2945;DHT22;1482;51.398;7.128;2022-08-16T04:02:05;19.60;1.00
2945;DHT22;1482;51.398;7.128;2022-08-16T04:04:31;19.60;1.00
2945;DHT22;1482;51.398;7.128;2022-08-16T04:06:57;19.60;1.00
2945;DHT22;1482;51.398;7.128;2022-08-16T04:09:22;19.60;1.00
2945;DHT22;1482;51.398;7.128;2022-08-16T04:11:48;19.50;1.00
2945;DHT22;1482;51.398;7.128;2022-08-16T04:14:13;19.50;1.00
2945;DHT22;1482;51.398;7.128;2022-08-16T04:16:39;19.50;1.00
2945;DHT22;1482;51.398;7.128;2022-08-16T04:19:05;19.50;1.00
2945;DHT22;1482;51.398;7.128;2022-08-16T04:21:33;19.50;1.00
2945;DHT22;1482;51.398;7.128;2022-08-16T04:23:59;19.50;1.00
2945;DHT22;1482;51.398;7.128;2022-08-16T04:26:25;19.50;1.00
2945;DHT22;1482;51.398;7.128;2022-08-16T04:28:50;19.50;1.00
2945;DHT22;1482;51.398;7.128;2022-08-16T04:31:16;19.40;1.00
2945;DHT22;1482;51.398;7.128;2022-08-16T04:33:42;19.50;1.00
2945;DHT22;1482;51.398;7.128;2022-08-16T04:36:07;19.50;1.00
2945;DHT22;1482;51.398;7.128;2022-08-16T04:38:36;19.50;1.00
2945;DHT22;1482;51.398;7.128;2022-08-16T04:41:02;19.50;1.00
2945;DHT22;1482;51.398;7.128;2022-08-16T04:43:28;19.60;1.00
2945;DHT22;1482;51.398;7.128;2022-08-16T04:45:53;19.60;1.00
2945;DHT22;1482;51.398;7.128;2022-08-16T04:48:19;19.70;1.00
2945;DHT22;1482;51.398;7.128;2022-08-16T04:50:45;19.80;1.00
2945;DHT22;1482;51.398;7.128;2022-08-16T04:53:10;20.00;1.00
2945;DHT22;1482;51.398;7.128;2022-08-16T04:55:36;20.30;1.00
2945;DHT22;1482;51.398;7.128;2022-08-16T04:58:02;20.70;1.00
2945;DHT22;1482;51.398;7.128;2022-08-16T05:00:31;21.30;1.00
2945;DHT22;1482;51.398;7.128;2022-08-16T05:03:05;22.00;1.00
2945;DHT22;1482;51.398;7.128;2022-08-16T05:05:32;22.60;1.00
2945;DHT22;1482;51.398;7.128;2022-08-16T05:07:58;22.90;1.00
2945;DHT22;1482;51.398;7.128;2022-08-16T05:10:25;22.70;1.00
2945;DHT22;1482;51.398;7.128;2022-08-16T05:12:50;22.50;1.00
2945;DHT22;1482;51.398;7.128;2022-08-16T05:15:16;22.40;1.00
2945;DHT22;1482;51.398;7.128;2022-08-16T05:17:42;22.30;1.00
2945;DHT22;1482;51.398;7.128;2022-08-16T05:20:09;23.00;1.00
2945;DHT22;1482;51.398;7.128;2022-08-16T05:22:35;24.10;1.00
2945;DHT22;1482;51.398;7.128;2022-08-16T05:25:04;25.50;1.00
2945;DHT22;1482;51.398;7.128;2022-08-16T05:27:30;26.50;1.00
2945;DHT22;1482;51.398;7.128;2022-08-16T05:29:56;27.40;1.00
2945;DHT22;1482;51.398;7.128;2022-08-16T05:32:21;28.60;1.00
2945;DHT22;1482;51.398;7.128;2022-08-16T05:34:47;29.10;1.00
2945;DHT22;1482;51.398;7.128;2022-08-16T05:37:13;30.20;1.00
2945;DHT22;1482;51.398;7.128;2022-08-16T05:39:38;31.30;1.00
2945;DHT22;1482;51.398;7.128;2022-08-16T05:42:04;32.40;1.00
2945;DHT22;1482;51.398;7.128;2022-08-16T05:44:30;33.30;1.00
2945;DHT22;1482;51.398;7.128;2022-08-16T05:46:58;34.20;1.00
2945;DHT22;1482;51.398;7.128;2022-08-16T05:49:25;35.30;1.00
2945;DHT22;1482;51.398;7.128;2022-08-16T05:51:51;36.00;1.00
2945;DHT22;1482;51.398;7.128;2022-08-16T05:54:19;36.30;1.00
2945;DHT22;1482;51.398;7.128;2022-08-16T05:56:45;37.20;1.00
2945;DHT22;1482;51.398;7.128;2022-08-16T05:59:12;37.50;1.00
2945;DHT22;1482;51.398;7.128;2022-08-16T06:01:39;37.80;1.00
2945;DHT22;1482;51.398;7.128;2022-08-16T06:04:07;38.90;1.00
2945;DHT22;1482;51.398;7.128;2022-08-16T06:06:32;39.00;1.00
2945;DHT22;1482;51.398;7.128;2022-08-16T06:08:58;39.90;1.00
2945;DHT22;1482;51.398;7.128;2022-08-16T06:11:25;40.50;1.00
2945;DHT22;1482;51.398;7.128;2022-08-16T06:13:50;41.10;1.00
2945;DHT22;1482;51.398;7.128;2022-08-16T06:16:16;41.30;1.00
2945;DHT22;1482;51.398;7.128;2022-08-16T06:18:42;41.30;1.00
2945;DHT22;1482;51.398;7.128;2022-08-16T06:21:11;42.30;1.00
2945;DHT22;1482;51.398;7.128;2022-08-16T06:23:36;43.00;1.00
2945;DHT22;1482;51.398;7.128;2022-08-16T06:26:03;44.00;1.00
2945;DHT22;1482;51.398;7.128;2022-08-16T06:28:29;44.80;1.00
2945;DHT22;1482;51.398;7.128;2022-08-16T06:30:55;45.20;1.00
2945;DHT22;1482;51.398;7.128;2022-08-16T06:33:21;45.60;1.00
2945;DHT22;1482;51.398;7.128;2022-08-16T06:35:47;45.70;1.00
2945;DHT22;1482;51.398;7.128;2022-08-16T06:38:13;46.50;1.00
2945;DHT22;1482;51.398;7.128;2022-08-16T06:40:39;46.90;1.00
2945;DHT22;1482;51.398;7.128;2022-08-16T06:43:05;47.60;1.00
2945;DHT22;1482;51.398;7.128;2022-08-16T06:45:31;48.10;1.00
2945;DHT22;1482;51.398;7.128;2022-08-16T06:47:57;48.10;1.00
2945;DHT22;1482;51.398;7.128;2022-08-16T06:50:23;48.40;1.00
2945;DHT22;1482;51.398;7.128;2022-08-16T06:52:48;46.90;1.00
2945;DHT22;1482;51.398;7.128;2022-08-16T06:55:15;47.70;1.00
2945;DHT22;1482;51.398;7.128;2022-08-16T06:57:41;48.50;1.00
2945;DHT22;1482;51.398;7.128;2022-08-16T07:00:11;48.80;1.00
2945;DHT22;1482;51.398;7.128;2022-08-16T07:02:39;48.50;1.00
2945;DHT22;1482;51.398;7.128;2022-08-16T07:05:06;48.80;1.00
2945;DHT22;1482;51.398;7.128;2022-08-16T07:07:33;48.50;1.00
2945;DHT22;1482;51.398;7.128;2022-08-16T07:09:59;48.50;1.00
2945;DHT22;1482;51.398;7.128;2022-08-16T07:12:25;48.00;1.00
2945;DHT22;1482;51.398;7.128;2022-08-16T07:14:51;48.60;1.00
2945;DHT22;1482;51.398;7.128;2022-08-16T07:17:17;48.50;1.00
2945;DHT22;1482;51.398;7.128;2022-08-16T07:19:44;49.10;1.00
2945;DHT22;1482;51.398;7.128;2022-08-16T07:22:09;49.10;1.00
2945;DHT22;1482;51.398;7.128;2022-08-16T07:24:35;49.80;1.00
2945;DHT22;1482;51.398;7.128;2022-08-16T07:27:01;50.10;1.00
2945;DHT22;1482;51.398;7.128;2022-08-16T07:29:28;50.70;1.00
2945;DHT22;1482;51.398;7.128;2022-08-16T07:31:54;50.80;1.00
2945;DHT22;1482;51.398;7.128;2022-08-16T07:34:19;51.10;1.00
2945;DHT22;1482;51.398;7.128;2022-08-16T07:36:45;51.20;1.00
2945;DHT22;1482;51.398;7.128;2022-08-16T07:39:13;50.80;1.00
2945;DHT22;1482;51.398;7.128;2022-08-16T07:41:39;50.60;1.00
2945;DHT22;1482;51.398;7.128;2022-08-16T07:44:05;51.30;1.00
2945;DHT22;1482;51.398;7.128;2022-08-16T07:46:31;51.40;1.00
2945;DHT22;1482;51.398;7.128;2022-08-16T07:48:57;51.40;1.00
2945;DHT22;1482;51.398;7.128;2022-08-16T07:51:22;51.30;1.00
2945;DHT22;1482;51.398;7.128;2022-08-16T07:53:48;51.40;1.00
2945;DHT22;1482;51.398;7.128;2022-08-16T07:56:17;51.70;1.00
2945;DHT22;1482;51.398;7.128;2022-08-16T07:58:43;52.30;1.00
2945;DHT22;1482;51.398;7.128;2022-08-16T08:01:09;53.60;1.00
2945;DHT22;1482;51.398;7.128;2022-08-16T08:03:35;53.80;1.00
2945;DHT22;1482;51.398;7.128;2022-08-16T08:06:01;53.60;1.00
2945;DHT22;1482;51.398;7.128;2022-08-16T08:08:28;53.30;1.00
2945;DHT22;1482;51.398;7.128;2022-08-16T08:10:54;54.00;1.00
2945;DHT22;1482;51.398;7.128;2022-08-16T08:13:21;54.40;1.00
2945;DHT22;1482;51.398;7.128;2022-08-16T08:15:46;54.70;1.00
2945;DHT22;1482;51.398;7.128;2022-08-16T08:18:13;54.50;1.00
2945;DHT22;1482;51.398;7.128;2022-08-16T08:20:39;55.00;1.00
2945;DHT22;1482;51.398;7.128;2022-08-16T08:23:08;55.40;1.00
2945;DHT22;1482;51.398;7.128;2022-08-16T08:25:35;54.70;1.00
2945;DHT22;1482;51.398;7.128;2022-08-16T08:28:00;54.50;1.00
2945;DHT22;1482;51.398;7.128;2022-08-16T08:30:27;54.50;1.00
2945;DHT22;1482;51.398;7.128;2022-08-16T08:32:52;53.70;1.00
2945;DHT22;1482;51.398;7.128;2022-08-16T08:35:19;51.80;1.00
2945;DHT22;1482;51.398;7.128;2022-08-16T08:37:45;49.40;1.00
2945;DHT22;1482;51.398;7.128;2022-08-16T08:40:11;47.40;1.00
2945;DHT22;1482;51.398;7.128;2022-08-16T08:42:37;45.30;1.00
2945;DHT22;1482;51.398;7.128;2022-08-16T08:45:05;43.90;1.00
2945;DHT22;1482;51.398;7.128;2022-08-16T08:47:31;43.20;1.00
2945;DHT22;1482;51.398;7.128;2022-08-16T08:49:57;42.10;1.00
2945;DHT22;1482;51.398;7.128;2022-08-16T08:52:23;41.30;1.00
2945;DHT22;1482;51.398;7.128;2022-08-16T08:54:49;40.50;1.00
2945;DHT22;1482;51.398;7.128;2022-08-16T08:57:14;40.20;1.00
2945;DHT22;1482;51.398;7.128;2022-08-16T08:59:43;39.70;1.00
2945;DHT22;1482;51.398;7.128;2022-08-16T09:02:10;38.50;1.00
2945;DHT22;1482;51.398;7.128;2022-08-16T09:04:36;38.20;1.00
2945;DHT22;1482;51.398;7.128;2022-08-16T09:07:02;37.90;1.00
2945;DHT22;1482;51.398;7.128;2022-08-16T09:09:28;37.60;1.00
2945;DHT22;1482;51.398;7.128;2022-08-16T09:11:55;37.30;1.00
2945;DHT22;1482;51.398;7.128;2022-08-16T09:14:22;37.00;1.00
2945;DHT22;1482;51.398;7.128;2022-08-16T09:16:47;36.80;1.00
2945;DHT22;1482;51.398;7.128;2022-08-16T09:19:13;36.70;1.00
2945;DHT22;1482;51.398;7.128;2022-08-16T09:21:39;36.80;1.00
2945;DHT22;1482;51.398;7.128;2022-08-16T09:24:05;36.60;1.00
2945;DHT22;1482;51.398;7.128;2022-08-16T09:26:30;36.30;1.00
2945;DHT22;1482;51.398;7.128;2022-08-16T09:28:56;36.40;1.00
2945;DHT22;1482;51.398;7.128;2022-08-16T09:31:22;36.30;1.00
2945;DHT22;1482;51.398;7.128;2022-08-16T09:33:49;36.30;1.00
2945;DHT22;1482;51.398;7.128;2022-08-16T09:36:15;36.30;1.00
2945;DHT22;1482;51.398;7.128;2022-08-16T09:38:41;36.20;1.00
2945;DHT22;1482;51.398;7.128;2022-08-16T09:41:09;36.10;1.00
2945;DHT22;1482;51.398;7.128;2022-08-16T09:43:35;36.10;1.00
2945;DHT22;1482;51.398;7.128;2022-08-16T09:46:03;35.90;1.00
2945;DHT22;1482;51.398;7.128;2022-08-16T09:48:29;35.90;1.00
2945;DHT22;1482;51.398;7.128;2022-08-16T09:50:57;35.80;1.00
2945;DHT22;1482;51.398;7.128;2022-08-16T09:53:23;35.40;1.00
2945;DHT22;1482;51.398;7.128;2022-08-16T09:55:54;34.90;1.00
2945;DHT22;1482;51.398;7.128;2022-08-16T09:58:25;34.80;1.00
2945;DHT22;1482;51.398;7.128;2022-08-16T10:00:51;35.10;1.00
2945;DHT22;1482;51.398;7.128;2022-08-16T10:03:18;35.10;1.00
2945;DHT22;1482;51.398;7.128;2022-08-16T10:05:44;35.10;1.00
2945;DHT22;1482;51.398;7.128;2022-08-16T10:08:10;34.90;1.00
2945;DHT22;1482;51.398;7.128;2022-08-16T10:10:36;35.20;1.00
2945;DHT22;1482;51.398;7.128;2022-08-16T10:13:05;35.30;1.00
2945;DHT22;1482;51.398;7.128;2022-08-16T10:15:39;35.30;1.00
2945;DHT22;1482;51.398;7.128;2022-08-16T10:18:06;35.40;1.00
2945;DHT22;1482;51.398;7.128;2022-08-16T10:20:36;35.30;1.00
2945;DHT22;1482;51.398;7.128;2022-08-16T10:23:04;35.30;1.00
2945;DHT22;1482;51.398;7.128;2022-08-16T10:25:30;35.40;1.00
2945;DHT22;1482;51.398;7.128;2022-08-16T10:27:56;35.10;1.00
2945;DHT22;1482;51.398;7.128;2022-08-16T10:30:22;35.30;1.00
2945;DHT22;1482;51.398;7.128;2022-08-16T10:32:47;35.50;1.00
2945;DHT22;1482;51.398;7.128;2022-08-16T10:35:13;35.70;1.00
2945;DHT22;1482;51.398;7.128;2022-08-16T10:37:38;35.50;1.00
2945;DHT22;1482;51.398;7.128;2022-08-16T10:40:09;35.20;1.00
2945;DHT22;1482;51.398;7.128;2022-08-16T10:42:34;35.10;1.00
2945;DHT22;1482;51.398;7.128;2022-08-16T10:45:00;35.00;1.00
2945;DHT22;1482;51.398;7.128;2022-08-16T10:47:27;35.10;1.00
2945;DHT22;1482;51.398;7.128;2022-08-16T10:49:53;34.90;1.00
2945;DHT22;1482;51.398;7.128;2022-08-16T10:52:20;34.40;1.00
2945;DHT22;1482;51.398;7.128;2022-08-16T10:54:47;34.50;1.00
2945;DHT22;1482;51.398;7.128;2022-08-16T10:57:13;34.50;1.00
2945;DHT22;1482;51.398;7.128;2022-08-16T10:59:39;34.30;1.00
2945;DHT22;1482;51.398;7.128;2022-08-16T11:02:06;34.30;1.00
2945;DHT22;1482;51.398;7.128;2022-08-16T11:04:33;34.40;1.00
2945;DHT22;1482;51.398;7.128;2022-08-16T11:06:59;34.70;1.00
2945;DHT22;1482;51.398;7.128;2022-08-16T11:09:24;34.80;1.00
2945;DHT22;1482;51.398;7.128;2022-08-16T11:11:50;35.10;1.00
2945;DHT22;1482;51.398;7.128;2022-08-16T11:14:15;35.20;1.00
2945;DHT22;1482;51.398;7.128;2022-08-16T11:16:43;35.10;1.00
2945;DHT22;1482;51.398;7.128;2022-08-16T11:19:09;35.00;1.00
2945;DHT22;1482;51.398;7.128;2022-08-16T11:21:34;34.80;1.00
2945;DHT22;1482;51.398;7.128;2022-08-16T11:24:02;34.80;1.00
2945;DHT22;1482;51.398;7.128;2022-08-16T11:26:27;34.80;1.00
2945;DHT22;1482;51.398;7.128;2022-08-16T11:28:54;35.00;1.00
2945;DHT22;1482;51.398;7.128;2022-08-16T11:31:22;34.80;1.00
2945;DHT22;1482;51.398;7.128;2022-08-16T11:33:48;35.00;1.00
2945;DHT22;1482;51.398;7.128;2022-08-16T11:36:13;34.90;1.00
2945;DHT22;1482;51.398;7.128;2022-08-16T11:38:40;34.90;1.00
2945;DHT22;1482;51.398;7.128;2022-08-16T11:41:06;35.10;1.00
2945;DHT22;1482;51.398;7.128;2022-08-16T11:43:35;35.10;1.00
2945;DHT22;1482;51.398;7.128;2022-08-16T11:46:06;35.10;1.00
2945;DHT22;1482;51.398;7.128;2022-08-16T11:48:33;35.10;1.00
2945;DHT22;1482;51.398;7.128;2022-08-16T11:51:00;35.20;1.00
2945;DHT22;1482;51.398;7.128;2022-08-16T11:53:26;35.20;1.00
2945;DHT22;1482;51.398;7.128;2022-08-16T11:55:54;35.30;1.00
2945;DHT22;1482;51.398;7.128;2022-08-16T11:58:20;35.40;1.00
2945;DHT22;1482;51.398;7.128;2022-08-16T12:00:46;35.20;1.00
2945;DHT22;1482;51.398;7.128;2022-08-16T12:03:12;35.00;1.00
2945;DHT22;1482;51.398;7.128;2022-08-16T12:05:41;35.00;1.00
2945;DHT22;1482;51.398;7.128;2022-08-16T12:08:07;35.00;1.00
2945;DHT22;1482;51.398;7.128;2022-08-16T12:10:35;35.10;1.00
2945;DHT22;1482;51.398;7.128;2022-08-16T12:13:01;35.20;1.00
2945;DHT22;1482;51.398;7.128;2022-08-16T12:15:27;35.10;1.00
2945;DHT22;1482;51.398;7.128;2022-08-16T12:17:53;35.20;1.00
2945;DHT22;1482;51.398;7.128;2022-08-16T12:20:24;35.30;1.00
2945;DHT22;1482;51.398;7.128;2022-08-16T12:22:51;35.20;1.00
2945;DHT22;1482;51.398;7.128;2022-08-16T12:25:19;34.90;1.00
2945;DHT22;1482;51.398;7.128;2022-08-16T12:27:46;34.70;1.00
2945;DHT22;1482;51.398;7.128;2022-08-16T12:30:15;34.70;1.00
2945;DHT22;1482;51.398;7.128;2022-08-16T12:32:41;34.70;1.00
2945;DHT22;1482;51.398;7.128;2022-08-16T12:35:10;34.90;1.00
2945;DHT22;1482;51.398;7.128;2022-08-16T12:37:37;35.10;1.00
2945;DHT22;1482;51.398;7.128;2022-08-16T12:40:04;35.20;1.00
2945;DHT22;1482;51.398;7.128;2022-08-16T12:42:31;35.30;1.00
2945;DHT22;1482;51.398;7.128;2022-08-16T12:44:59;35.50;1.00
2945;DHT22;1482;51.398;7.128;2022-08-16T12:47:25;35.40;1.00
2945;DHT22;1482;51.398;7.128;2022-08-16T12:50:11;35.20;1.00
2945;DHT22;1482;51.398;7.128;2022-08-16T12:52:36;34.90;1.00
2945;DHT22;1482;51.398;7.128;2022-08-16T12:55:03;34.80;1.00
2945;DHT22;1482;51.398;7.128;2022-08-16T12:57:29;34.50;1.00
2945;DHT22;1482;51.398;7.128;2022-08-16T12:59:54;34.40;1.00
2945;DHT22;1482;51.398;7.128;2022-08-16T13:02:20;34.40;1.00
2945;DHT22;1482;51.398;7.128;2022-08-16T13:04:46;34.30;1.00
2945;DHT22;1482;51.398;7.128;2022-08-16T13:07:12;34.20;1.00
2945;DHT22;1482;51.398;7.128;2022-08-16T13:09:39;33.90;1.00
2945;DHT22;1482;51.398;7.128;2022-08-16T13:12:16;33.80;1.00
2945;DHT22;1482;51.398;7.128;2022-08-16T13:14:49;33.50;1.00
2945;DHT22;1482;51.398;7.128;2022-08-16T13:17:18;33.10;1.00
2945;DHT22;1482;51.398;7.128;2022-08-16T13:19:45;33.10;1.00
2945;DHT22;1482;51.398;7.128;2022-08-16T13:22:10;33.10;1.00
2945;DHT22;1482;51.398;7.128;2022-08-16T13:24:36;33.10;1.00
2945;DHT22;1482;51.398;7.128;2022-08-16T13:27:02;33.20;1.00
2945;DHT22;1482;51.398;7.128;2022-08-16T13:29:27;33.30;1.00
2945;DHT22;1482;51.398;7.128;2022-08-16T13:31:53;33.40;1.00
2945;DHT22;1482;51.398;7.128;2022-08-16T13:34:18;33.50;1.00
2945;DHT22;1482;51.398;7.128;2022-08-16T13:36:44;33.60;1.00
2945;DHT22;1482;51.398;7.128;2022-08-16T13:39:10;33.90;1.00
2945;DHT22;1482;51.398;7.128;2022-08-16T13:41:36;34.10;1.00
2945;DHT22;1482;51.398;7.128;2022-08-16T13:44:02;34.30;1.00
2945;DHT22;1482;51.398;7.128;2022-08-16T13:46:29;34.40;1.00
2945;DHT22;1482;51.398;7.128;2022-08-16T13:48:55;34.40;1.00
2945;DHT22;1482;51.398;7.128;2022-08-16T13:51:21;34.40;1.00
2945;DHT22;1482;51.398;7.128;2022-08-16T13:53:53;34.50;1.00
2945;DHT22;1482;51.398;7.128;2022-08-16T13:56:20;34.40;1.00
2945;DHT22;1482;51.398;7.128;2022-08-16T13:58:46;34.10;1.00
2945;DHT22;1482;51.398;7.128;2022-08-16T14:01:12;34.00;1.00
2945;DHT22;1482;51.398;7.128;2022-08-16T14:03:39;33.80;1.00
2945;DHT22;1482;51.398;7.128;2022-08-16T14:06:06;33.60;1.00
2945;DHT22;1482;51.398;7.128;2022-08-16T14:08:31;33.40;1.00
2945;DHT22;1482;51.398;7.128;2022-08-16T14:10:57;33.50;1.00
2945;DHT22;1482;51.398;7.128;2022-08-16T14:13:23;33.50;1.00
2945;DHT22;1482;51.398;7.128;2022-08-16T14:15:49;33.50;1.00
2945;DHT22;1482;51.398;7.128;2022-08-16T14:18:15;33.50;1.00
2945;DHT22;1482;51.398;7.128;2022-08-16T14:20:40;33.40;1.00
2945;DHT22;1482;51.398;7.128;2022-08-16T14:23:06;33.40;1.00
2945;DHT22;1482;51.398;7.128;2022-08-16T14:25:32;33.20;1.00
2945;DHT22;1482;51.398;7.128;2022-08-16T14:27:58;33.10;1.00
2945;DHT22;1482;51.398;7.128;2022-08-16T14:30:24;33.10;1.00
2945;DHT22;1482;51.398;7.128;2022-08-16T14:32:49;33.00;1.00
2945;DHT22;1482;51.398;7.128;2022-08-16T14:35:26;32.90;1.00
2945;DHT22;1482;51.398;7.128;2022-08-16T14:37:52;33.00;1.00
2945;DHT22;1482;51.398;7.128;2022-08-16T14:40:19;33.00;1.00
2945;DHT22;1482;51.398;7.128;2022-08-16T14:42:45;33.10;1.00
2945;DHT22;1482;51.398;7.128;2022-08-16T14:45:13;32.90;1.00
2945;DHT22;1482;51.398;7.128;2022-08-16T14:47:39;32.80;1.00
2945;DHT22;1482;51.398;7.128;2022-08-16T14:50:08;32.80;1.00
2945;DHT22;1482;51.398;7.128;2022-08-16T14:52:34;32.70;1.00
2945;DHT22;1482;51.398;7.128;2022-08-16T14:55:00;32.50;1.00
2945;DHT22;1482;51.398;7.128;2022-08-16T14:57:26;32.50;1.00
2945;DHT22;1482;51.398;7.128;2022-08-16T14:59:52;32.40;1.00
2945;DHT22;1482;51.398;7.128;2022-08-16T15:02:23;32.30;1.00
2945;DHT22;1482;51.398;7.128;2022-08-16T15:04:50;32.20;1.00
2945;DHT22;1482;51.398;7.128;2022-08-16T15:07:16;32.20;1.00
2945;DHT22;1482;51.398;7.128;2022-08-16T15:09:44;32.20;1.00
2945;DHT22;1482;51.398;7.128;2022-08-16T15:12:13;32.20;1.00
2945;DHT22;1482;51.398;7.128;2022-08-16T15:14:40;32.10;1.00
2945;DHT22;1482;51.398;7.128;2022-08-16T15:17:06;32.10;1.00
2945;DHT22;1482;51.398;7.128;2022-08-16T15:19:33;32.00;1.00
2945;DHT22;1482;51.398;7.128;2022-08-16T15:21:59;32.00;1.00
2945;DHT22;1482;51.398;7.128;2022-08-16T15:24:25;32.00;1.00
2945;DHT22;1482;51.398;7.128;2022-08-16T15:26:51;31.80;1.00
2945;DHT22;1482;51.398;7.128;2022-08-16T15:29:18;31.80;1.00
2945;DHT22;1482;51.398;7.128;2022-08-16T15:31:44;31.80;1.00
2945;DHT22;1482;51.398;7.128;2022-08-16T15:34:11;31.70;1.00
2945;DHT22;1482;51.398;7.128;2022-08-16T15:36:36;31.70;1.00
2945;DHT22;1482;51.398;7.128;2022-08-16T15:39:02;31.70;1.00
2945;DHT22;1482;51.398;7.128;2022-08-16T15:44:17;31.80;1.00
2945;DHT22;1482;51.398;7.128;2022-08-16T15:46:43;31.90;1.00
2945;DHT22;1482;51.398;7.128;2022-08-16T15:49:09;31.90;1.00
2945;DHT22;1482;51.398;7.128;2022-08-16T15:51:35;31.80;1.00
2945;DHT22;1482;51.398;7.128;2022-08-16T15:54:01;31.80;1.00
2945;DHT22;1482;51.398;7.128;2022-08-16T15:56:27;31.80;1.00
2945;DHT22;1482;51.398;7.128;2022-08-16T15:58:52;31.70;1.00
2945;DHT22;1482;51.398;7.128;2022-08-16T16:01:18;31.70;1.00
2945;DHT22;1482;51.398;7.128;2022-08-16T16:03:44;31.70;1.00
2945;DHT22;1482;51.398;7.128;2022-08-16T16:06:11;31.60;1.00
2945;DHT22;1482;51.398;7.128;2022-08-16T16:08:37;31.60;1.00
2945;DHT22;1482;51.398;7.128;2022-08-16T16:11:06;31.50;1.00
2945;DHT22;1482;51.398;7.128;2022-08-16T16:13:33;31.50;1.00
2945;DHT22;1482;51.398;7.128;2022-08-16T16:16:00;31.50;1.00
2945;DHT22;1482;51.398;7.128;2022-08-16T16:18:31;31.40;1.00
2945;DHT22;1482;51.398;7.128;2022-08-16T16:21:01;31.40;1.00